If you wish to contribute or participate in the discussions about articles you are invited to join SKYbrary as a registered user

 Actions

Orléans-Saint-Denis-de-l'Hôtel Airport

From SKYbrary Wiki

LFOZ /
Revision as of 20:14, 16 February 2015 by Timo.Kouwenhoven (talk | contribs) (LF Airports CSV import)
(diff) ← Older revision | Latest revision (diff) | Newer revision → (diff)
Airport
ICAO: LFOZ
Summary
Name Orléans-Saint-Denis-de-l'Hôtel Airport
Region Europe
Territory France FR.gif
Location , Centre
Serving Orleans
Elevation 120.701 m
396 ft
396 ft120.701 m
Type small airport
Coordinates 47° 53' 49.01" N, 2° 9' 48.00" E
Runways
Designator Length Width Surface ROPS
5/23 1392 m4,566.929 ft
30 m98.425 ft
ASP /


METAR
Observation LFOZ 220000Z AUTO 00000KT 4300 1400 R23/1300U BR NSC 04/03 Q1023
Station Orléans - Saint-Denis-de-l'Hôtel
Date/Time 22 October 2019 00:00:00
Wind direction
Wind speed 00 kts
Lowest cloud amount nil significant cloud
Temperature 23°C
Dew point 13°C
Humidity 53%
QNH 1023 hPa
Weather condition n/a